createdAt,value
2024-05-09T00:04:08.114Z,99760.63
2024-05-09T00:09:14.952Z,99767.61
2024-05-09T00:14:21.530Z,99768.98
2024-05-09T00:19:28.135Z,99767.55
2024-05-09T00:24:35.284Z,99772.91
2024-05-09T00:29:41.808Z,99773.55
2024-05-09T00:34:50.481Z,99771.77
2024-05-09T00:39:57.259Z,99777.57
2024-05-09T00:45:04.111Z,99771.54
2024-05-09T00:50:19.231Z,99778.42
2024-05-09T00:55:31.132Z,99772.70
2024-05-09T01:00:40.324Z,99769.64
2024-05-09T01:05:48.829Z,99770.58
2024-05-09T01:10:56.055Z,99768.78
2024-05-09T01:16:03.841Z,99771.54
2024-05-09T01:21:11.536Z,99771.92
2024-05-09T01:26:18.316Z,99779.75
2024-05-09T01:31:24.912Z,99783.11
2024-05-09T01:36:32.144Z,99778.23
2024-05-09T01:41:39.288Z,99773.48
2024-05-09T01:46:45.968Z,99768.20
2024-05-09T01:51:51.303Z,99761.26
2024-05-09T01:56:59.460Z,99765.64
2024-05-09T02:02:06.888Z,99761.96
2024-05-09T02:07:13.720Z,99774.36
2024-05-09T02:12:22.065Z,99766.10
2024-05-09T02:17:29.251Z,99760.34
2024-05-09T02:22:36.278Z,99762.91
2024-05-09T02:27:42.878Z,99767.80
2024-05-09T02:32:49.821Z,99767.84
2024-05-09T02:37:57.909Z,99770.20
2024-05-09T02:43:04.870Z,99771.64
2024-05-09T02:48:11.679Z,99773.55
2024-05-09T02:53:20.139Z,99781.36
2024-05-09T02:58:26.977Z,99774.46
2024-05-09T03:03:33.969Z,99775.60
2024-05-09T03:08:46.265Z,99777.55
2024-05-09T03:13:55.571Z,99778.55
2024-05-09T03:19:02.968Z,99779.25
2024-05-09T03:24:11.986Z,99779.96
2024-05-09T03:29:19.166Z,99784.98
2024-05-09T03:34:26.542Z,99790.34
2024-05-09T03:39:34.324Z,99793.96
2024-05-09T03:44:41.312Z,99789.23
2024-05-09T03:49:48.063Z,99798.38
2024-05-09T03:54:53.351Z,99801.98
2024-05-09T04:00:00.102Z,99804.12
2024-05-09T04:05:05.900Z,99802.70
2024-05-09T04:10:21.071Z,99803.39
2024-05-09T04:15:34.916Z,99806.45
2024-05-09T04:20:42.005Z,99809.41
2024-05-09T04:25:49.709Z,99812.79
2024-05-09T04:30:56.587Z,99813.48
2024-05-09T04:36:03.407Z,99816.86
2024-05-09T04:41:10.978Z,99824.70
2024-05-09T04:46:18.051Z,99833.30
2024-05-09T04:51:25.149Z,99834.30
2024-05-09T04:56:31.850Z,99839.89
2024-05-09T05:01:37.216Z,99844.17
2024-05-09T05:06:44.286Z,99846.02
2024-05-09T05:11:51.040Z,99853.50
2024-05-09T05:16:56.284Z,99864.44
2024-05-09T05:22:02.965Z,99864.41
2024-05-09T05:27:10.928Z,99862.24
2024-05-09T05:32:18.271Z,99863.98
2024-05-09T05:37:25.141Z,99865.88
2024-05-09T05:42:32.578Z,99860.89
2024-05-09T05:47:39.442Z,99865.09
2024-05-09T05:52:46.472Z,99864.63
2024-05-09T05:57:53.840Z,99868.49
2024-05-09T06:03:00.554Z,99868.23
2024-05-09T06:08:09.315Z,99866.11
2024-05-09T06:13:16.676Z,99868.92
2024-05-09T06:18:23.720Z,99869.34
2024-05-09T06:23:30.737Z,99873.56
2024-05-09T06:28:38.199Z,99876.73
2024-05-09T06:33:46.263Z,99874.88
2024-05-09T06:38:53.162Z,99868.16
2024-05-09T06:44:00.370Z,99870.20
2024-05-09T06:49:08.682Z,99866.48
2024-05-09T06:54:16.332Z,99863.05
2024-05-09T06:59:23.488Z,99864.13
2024-05-09T07:04:30.555Z,99862.57
2024-05-09T07:09:37.653Z,99862.49
2024-05-09T07:14:44.768Z,99858.71
2024-05-09T07:19:52.686Z,99857.20
2024-05-09T07:25:02.098Z,99858.22
2024-05-09T07:30:13.589Z,99859.27
2024-05-09T07:35:23.617Z,99858.58
2024-05-09T07:40:35.899Z,99858.27
2024-05-09T07:45:52.323Z,99854.02
2024-05-09T07:56:12.432Z,99852.89
2024-05-09T08:01:19.754Z,99848.38
2024-05-09T08:06:27.172Z,99852.91
2024-05-09T08:11:37.155Z,99849.98
2024-05-09T08:16:44.175Z,99850.41
2024-05-09T08:21:51.050Z,99849.11
2024-05-09T08:26:57.816Z,99852.32
2024-05-09T08:32:06.283Z,99852.73
2024-05-09T08:37:19.689Z,99858.45
2024-05-09T08:42:35.560Z,99854.26
2024-05-09T08:47:44.191Z,99854.63
2024-05-09T08:52:51.008Z,99851.02
2024-05-09T08:57:59.582Z,99856.20
2024-05-09T09:03:10.185Z,99843.66
2024-05-09T09:08:17.615Z,99845.74
2024-05-09T09:13:24.571Z,99844.63
2024-05-09T09:18:33.169Z,99846.16
2024-05-09T09:23:41.580Z,99841.42
2024-05-09T09:28:49.631Z,99838.92
2024-05-09T09:33:56.874Z,99842.92
2024-05-09T09:39:03.979Z,99842.84
2024-05-09T09:44:12.102Z,99838.48
2024-05-09T09:49:20.277Z,99848.34
2024-05-09T09:54:29.873Z,99842.13
2024-05-09T09:59:37.882Z,99835.45
2024-05-09T10:04:46.141Z,99834.36
2024-05-09T10:09:57.856Z,99829.68
2024-05-09T10:15:09.839Z,99835.70
2024-05-09T10:20:22.194Z,99825.20
2024-05-09T10:25:37.139Z,99827.91
2024-05-09T10:30:45.677Z,99826.48
2024-05-09T10:35:55.417Z,99825.20
2024-05-09T10:41:03.673Z,99828.84
2024-05-09T10:46:11.480Z,99828.52
2024-05-09T10:51:20.611Z,99822.59
2024-05-09T10:56:28.756Z,99815.11
2024-05-09T11:01:36.376Z,99813.66
2024-05-09T11:06:43.709Z,99810.63
2024-05-09T11:11:50.906Z,99811.45
2024-05-09T11:17:06.002Z,99799.72
2024-05-09T11:22:14.841Z,99805.08
2024-05-09T11:27:24.608Z,99797.11
2024-05-09T11:32:33.691Z,99795.62
2024-05-09T11:37:42.854Z,99795.28
2024-05-09T11:42:52.480Z,99790.98
2024-05-09T11:47:59.992Z,99782.98
2024-05-09T11:53:07.974Z,99786.46
2024-05-09T11:58:17.790Z,99773.35
2024-05-09T12:03:25.930Z,99769.64
2024-05-09T12:08:32.873Z,99766.55
2024-05-09T12:13:39.798Z,99763.75
2024-05-09T12:18:46.938Z,99760.08
2024-05-09T12:23:54.473Z,99759.08
2024-05-09T12:29:01.396Z,99753.54
2024-05-09T12:34:08.628Z,99752.63
2024-05-09T12:39:15.574Z,99755.00
2024-05-09T12:44:22.666Z,99753.86
2024-05-09T12:49:30.138Z,99747.95
2024-05-09T12:54:37.478Z,99739.01
2024-05-09T12:59:45.948Z,99732.38
2024-05-09T13:04:53.020Z,99734.36
2024-05-09T13:10:00.178Z,99726.77
2024-05-09T13:15:08.618Z,99716.83
2024-05-09T13:20:25.688Z,99710.04
2024-05-09T13:25:37.134Z,99712.80
2024-05-09T13:30:44.814Z,99704.60
2024-05-09T13:35:51.646Z,99707.13
2024-05-09T13:40:58.514Z,99697.96
2024-05-09T13:46:06.747Z,99695.11
2024-05-09T13:51:16.824Z,99693.64
2024-05-09T13:56:24.244Z,99687.44
2024-05-09T14:01:31.293Z,99682.52
2024-05-09T14:06:38.347Z,99681.41
2024-05-09T14:11:45.559Z,99675.27
2024-05-09T14:16:52.637Z,99674.52
2024-05-09T14:21:59.717Z,99672.08
2024-05-09T14:27:07.584Z,99664.84
2024-05-09T14:32:14.953Z,99659.55
2024-05-09T14:37:22.220Z,99657.60
2024-05-09T14:42:29.628Z,99654.93
2024-05-09T14:47:36.898Z,99654.83
2024-05-09T14:52:44.471Z,99648.61
2024-05-09T14:57:52.050Z,99638.94
2024-05-09T15:02:58.874Z,99641.19
2024-05-09T15:08:09.546Z,99637.56
2024-05-09T15:13:17.392Z,99637.98
2024-05-09T15:18:24.590Z,99641.02
2024-05-09T15:23:31.620Z,99633.74
2024-05-09T15:28:38.955Z,99627.00
2024-05-09T15:33:46.385Z,99625.59
2024-05-09T15:38:55.873Z,99623.86
2024-05-09T15:44:03.500Z,99622.23
2024-05-09T15:49:11.476Z,99619.31
2024-05-09T15:54:21.043Z,99614.61
2024-05-09T15:59:32.007Z,99607.14
2024-05-09T16:04:39.219Z,99603.79
2024-05-09T16:09:45.907Z,99603.90
2024-05-09T16:14:52.622Z,99601.67
2024-05-09T16:19:59.515Z,99603.41
2024-05-09T16:25:07.474Z,99603.98
2024-05-09T16:30:21.234Z,99603.10
2024-05-09T16:35:35.827Z,99603.88
2024-05-09T16:40:42.957Z,99603.97
2024-05-09T16:45:50.546Z,99603.61
2024-05-09T16:50:57.786Z,99602.69
2024-05-09T16:56:05.308Z,99595.77
2024-05-09T17:01:13.812Z,99593.98
2024-05-09T17:06:20.790Z,99596.36
2024-05-09T17:11:27.642Z,99594.35
2024-05-09T17:16:34.880Z,99593.73
2024-05-09T17:21:42.282Z,99593.75
2024-05-09T17:26:50.090Z,99596.79
2024-05-09T17:31:57.302Z,99591.61
2024-05-09T17:37:04.303Z,99588.77
2024-05-09T17:42:11.882Z,99586.16
2024-05-09T17:47:19.359Z,99582.21
2024-05-09T17:52:26.326Z,99580.98
2024-05-09T17:57:33.275Z,99582.23
2024-05-09T18:02:40.705Z,99588.86
2024-05-09T18:07:47.846Z,99588.47
2024-05-09T18:12:54.809Z,99590.39
2024-05-09T18:18:02.813Z,99595.77
2024-05-09T18:23:11.527Z,99600.66
2024-05-09T18:28:18.666Z,99605.44
2024-05-09T18:33:25.506Z,99613.33
2024-05-09T18:38:32.653Z,99614.77
2024-05-09T18:43:44.963Z,99617.84
2024-05-09T18:54:47.970Z,99631.55
2024-05-09T18:59:55.385Z,99641.34
2024-05-09T19:05:02.621Z,99649.45
2024-05-09T19:10:21.791Z,99652.40
2024-05-09T19:15:29.961Z,99650.52
2024-05-09T19:20:37.611Z,99652.37
2024-05-09T19:25:45.800Z,99652.14
2024-05-09T19:30:53.036Z,99653.42
2024-05-09T19:36:00.958Z,99663.64
2024-05-09T19:41:11.543Z,99663.17
2024-05-09T19:46:19.033Z,99660.81
2024-05-09T19:51:26.035Z,99661.96
2024-05-09T19:56:33.272Z,99665.75
2024-05-09T20:01:40.720Z,99673.52
2024-05-09T20:06:48.847Z,99669.93
2024-05-09T20:11:57.335Z,99677.20
2024-05-09T20:17:04.565Z,99676.81
2024-05-09T20:22:14.789Z,99677.25
2024-05-09T20:27:22.239Z,99676.17
2024-05-09T20:32:29.262Z,99671.55
2024-05-09T20:37:37.122Z,99666.46
2024-05-09T20:42:46.100Z,99673.99
2024-05-09T20:47:53.563Z,99672.63
2024-05-09T20:53:00.567Z,99671.83
2024-05-09T20:58:07.826Z,99669.53
2024-05-09T21:03:16.622Z,99672.66
2024-05-09T21:08:27.029Z,99672.52
2024-05-09T21:13:34.103Z,99671.09
2024-05-09T21:18:41.043Z,99674.30
2024-05-09T21:23:47.995Z,99675.46
2024-05-09T21:28:54.674Z,99679.10
2024-05-09T21:34:00.061Z,99679.23
2024-05-09T21:39:07.345Z,99681.59
2024-05-09T21:44:14.393Z,99679.95
2024-05-09T21:49:21.368Z,99682.87
2024-05-09T21:54:29.176Z,99679.88
2024-05-09T21:59:36.382Z,99677.23
2024-05-09T22:04:44.030Z,99684.39
2024-05-09T22:09:52.804Z,99685.30
2024-05-09T22:14:59.890Z,99683.41
2024-05-09T22:20:17.872Z,99687.11
2024-05-09T22:25:30.692Z,99684.89
2024-05-09T22:30:39.966Z,99687.61
2024-05-09T22:35:47.925Z,99684.75
2024-05-09T22:40:55.737Z,99680.20
2024-05-09T22:46:03.616Z,99675.98
2024-05-09T22:51:11.115Z,99672.19
2024-05-09T22:56:28.900Z,99671.70
2024-05-09T23:01:35.900Z,99668.11
2024-05-09T23:06:44.267Z,99665.39
2024-05-09T23:11:52.028Z,99667.38
2024-05-09T23:16:59.629Z,99669.66
2024-05-09T23:22:08.054Z,99659.90
2024-05-09T23:27:15.653Z,99669.14
2024-05-09T23:32:22.988Z,99667.20
2024-05-09T23:37:30.469Z,99670.27
2024-05-09T23:42:41.537Z,99673.59
2024-05-09T23:47:48.636Z,99676.75
2024-05-09T23:52:55.739Z,99674.92
2024-05-09T23:58:02.830Z,99673.55
